sensor_id;sensor_type;location;lat;lon;timestamp;temperature;humidity
52867;DHT22;38739;53.324;6.862;2024-02-23T00:00:10;5.30;99.90
52867;DHT22;38739;53.324;6.862;2024-02-23T00:02:37;5.20;99.90
52867;DHT22;38739;53.324;6.862;2024-02-23T00:05:04;5.30;99.90
52867;DHT22;38739;53.324;6.862;2024-02-23T00:07:30;5.30;99.90
52867;DHT22;38739;53.324;6.862;2024-02-23T00:09:55;5.20;99.90
52867;DHT22;38739;53.324;6.862;2024-02-23T00:12:21;5.20;99.90
52867;DHT22;38739;53.324;6.862;2024-02-23T00:14:47;5.20;99.90
52867;DHT22;38739;53.324;6.862;2024-02-23T00:17:13;5.20;99.90
52867;DHT22;38739;53.324;6.862;2024-02-23T00:19:39;5.10;99.90
52867;DHT22;38739;53.324;6.862;2024-02-23T00:22:04;5.20;99.90
52867;DHT22;38739;53.324;6.862;2024-02-23T00:24:30;5.20;99.90
52867;DHT22;38739;53.324;6.862;2024-02-23T00:26:56;5.20;99.90
52867;DHT22;38739;53.324;6.862;2024-02-23T00:29:22;5.20;99.90
52867;DHT22;38739;53.324;6.862;2024-02-23T00:31:48;5.20;99.90
52867;DHT22;38739;53.324;6.862;2024-02-23T00:34:14;5.10;99.90
52867;DHT22;38739;53.324;6.862;2024-02-23T00:36:41;5.00;99.90
52867;DHT22;38739;53.324;6.862;2024-02-23T00:39:08;5.00;99.90
52867;DHT22;38739;53.324;6.862;2024-02-23T00:41:34;5.10;99.90
52867;DHT22;38739;53.324;6.862;2024-02-23T00:44:00;5.00;99.90
52867;DHT22;38739;53.324;6.862;2024-02-23T00:46:26;5.10;99.90
52867;DHT22;38739;53.324;6.862;2024-02-23T00:48:51;5.10;99.90
52867;DHT22;38739;53.324;6.862;2024-02-23T00:51:20;5.10;99.90
52867;DHT22;38739;53.324;6.862;2024-02-23T00:53:46;5.20;99.90
52867;DHT22;38739;53.324;6.862;2024-02-23T00:56:12;5.20;99.90
52867;DHT22;38739;53.324;6.862;2024-02-23T00:58:41;5.20;99.90
52867;DHT22;38739;53.324;6.862;2024-02-23T01:01:06;5.20;99.90
52867;DHT22;38739;53.324;6.862;2024-02-23T01:03:33;5.30;99.90
52867;DHT22;38739;53.324;6.862;2024-02-23T01:05:59;5.30;99.90
52867;DHT22;38739;53.324;6.862;2024-02-23T01:08:25;5.40;99.90
52867;DHT22;38739;53.324;6.862;2024-02-23T01:10:50;5.40;99.90
52867;DHT22;38739;53.324;6.862;2024-02-23T01:13:16;5.40;99.90
52867;DHT22;38739;53.324;6.862;2024-02-23T01:15:42;5.40;99.90
52867;DHT22;38739;53.324;6.862;2024-02-23T01:18:08;5.30;99.90
52867;DHT22;38739;53.324;6.862;2024-02-23T01:20:34;5.30;99.90
52867;DHT22;38739;53.324;6.862;2024-02-23T01:23:00;5.30;99.90
52867;DHT22;38739;53.324;6.862;2024-02-23T01:25:26;5.30;99.90
52867;DHT22;38739;53.324;6.862;2024-02-23T01:27:51;5.30;99.90
52867;DHT22;38739;53.324;6.862;2024-02-23T01:30:17;5.30;99.90
52867;DHT22;38739;53.324;6.862;2024-02-23T01:32:45;5.20;99.90
52867;DHT22;38739;53.324;6.862;2024-02-23T01:35:11;5.20;99.90
52867;DHT22;38739;53.324;6.862;2024-02-23T01:37:36;5.20;99.90
52867;DHT22;38739;53.324;6.862;2024-02-23T01:40:02;5.20;99.90
52867;DHT22;38739;53.324;6.862;2024-02-23T01:42:29;5.20;99.90
52867;DHT22;38739;53.324;6.862;2024-02-23T01:44:54;5.20;99.90
52867;DHT22;38739;53.324;6.862;2024-02-23T01:47:27;5.20;99.90
52867;DHT22;38739;53.324;6.862;2024-02-23T01:49:55;5.20;99.90
52867;DHT22;38739;53.324;6.862;2024-02-23T01:52:21;5.20;99.90
52867;DHT22;38739;53.324;6.862;2024-02-23T01:54:47;5.20;99.90
52867;DHT22;38739;53.324;6.862;2024-02-23T01:57:14;5.10;99.90
52867;DHT22;38739;53.324;6.862;2024-02-23T01:59:40;5.10;99.90
52867;DHT22;38739;53.324;6.862;2024-02-23T02:02:06;5.10;99.90
52867;DHT22;38739;53.324;6.862;2024-02-23T02:04:32;5.00;99.90
52867;DHT22;38739;53.324;6.862;2024-02-23T02:06:59;5.00;99.90
52867;DHT22;38739;53.324;6.862;2024-02-23T02:09:25;5.00;99.90
52867;DHT22;38739;53.324;6.862;2024-02-23T02:11:51;5.00;99.90
52867;DHT22;38739;53.324;6.862;2024-02-23T02:14:17;5.00;99.90
52867;DHT22;38739;53.324;6.862;2024-02-23T02:16:44;5.00;99.90
52867;DHT22;38739;53.324;6.862;2024-02-23T02:19:13;5.00;99.90
52867;DHT22;38739;53.324;6.862;2024-02-23T02:21:40;5.10;99.90
52867;DHT22;38739;53.324;6.862;2024-02-23T02:24:06;5.10;99.90
52867;DHT22;38739;53.324;6.862;2024-02-23T02:26:32;5.10;99.90
52867;DHT22;38739;53.324;6.862;2024-02-23T02:28:58;5.20;99.90
52867;DHT22;38739;53.324;6.862;2024-02-23T02:31:24;5.30;99.90
52867;DHT22;38739;53.324;6.862;2024-02-23T02:33:49;5.20;99.90
52867;DHT22;38739;53.324;6.862;2024-02-23T02:36:15;5.20;99.90
52867;DHT22;38739;53.324;6.862;2024-02-23T02:38:41;5.20;99.90
52867;DHT22;38739;53.324;6.862;2024-02-23T02:41:06;5.20;99.90
52867;DHT22;38739;53.324;6.862;2024-02-23T02:43:32;5.20;99.90
52867;DHT22;38739;53.324;6.862;2024-02-23T02:45:58;5.20;99.90
52867;DHT22;38739;53.324;6.862;2024-02-23T02:48:24;5.10;99.90
52867;DHT22;38739;53.324;6.862;2024-02-23T02:50:51;5.10;99.90
52867;DHT22;38739;53.324;6.862;2024-02-23T02:53:17;5.10;99.90
52867;DHT22;38739;53.324;6.862;2024-02-23T02:55:43;5.20;99.90
52867;DHT22;38739;53.324;6.862;2024-02-23T02:58:11;5.10;99.90
52867;DHT22;38739;53.324;6.862;2024-02-23T03:00:37;5.20;99.90
52867;DHT22;38739;53.324;6.862;2024-02-23T03:03:02;5.30;99.90
52867;DHT22;38739;53.324;6.862;2024-02-23T03:05:28;5.30;99.90
52867;DHT22;38739;53.324;6.862;2024-02-23T03:07:54;5.30;99.90
52867;DHT22;38739;53.324;6.862;2024-02-23T03:10:19;5.30;99.90
52867;DHT22;38739;53.324;6.862;2024-02-23T03:12:45;5.30;99.90
52867;DHT22;38739;53.324;6.862;2024-02-23T03:15:11;5.30;99.90
52867;DHT22;38739;53.324;6.862;2024-02-23T03:17:36;5.30;99.90
52867;DHT22;38739;53.324;6.862;2024-02-23T03:20:03;5.30;99.90
52867;DHT22;38739;53.324;6.862;2024-02-23T03:22:35;5.30;99.90
52867;DHT22;38739;53.324;6.862;2024-02-23T03:25:01;5.30;99.90
52867;DHT22;38739;53.324;6.862;2024-02-23T03:27:34;5.30;99.90
52867;DHT22;38739;53.324;6.862;2024-02-23T03:30:05;5.40;99.90
52867;DHT22;38739;53.324;6.862;2024-02-23T03:32:34;5.40;99.90
52867;DHT22;38739;53.324;6.862;2024-02-23T03:35:05;5.50;99.90
52867;DHT22;38739;53.324;6.862;2024-02-23T03:37:32;5.50;99.90
52867;DHT22;38739;53.324;6.862;2024-02-23T03:40:00;5.50;99.90
52867;DHT22;38739;53.324;6.862;2024-02-23T03:42:26;5.50;99.90
52867;DHT22;38739;53.324;6.862;2024-02-23T03:44:52;5.50;99.90
52867;DHT22;38739;53.324;6.862;2024-02-23T03:47:18;5.50;99.90
52867;DHT22;38739;53.324;6.862;2024-02-23T03:49:44;5.50;99.90
52867;DHT22;38739;53.324;6.862;2024-02-23T03:52:10;5.50;99.90
52867;DHT22;38739;53.324;6.862;2024-02-23T03:54:36;5.50;99.90
52867;DHT22;38739;53.324;6.862;2024-02-23T03:57:01;5.50;99.90
52867;DHT22;38739;53.324;6.862;2024-02-23T03:59:28;5.50;99.90
52867;DHT22;38739;53.324;6.862;2024-02-23T04:01:53;5.50;99.90
52867;DHT22;38739;53.324;6.862;2024-02-23T04:04:19;5.50;99.90
52867;DHT22;38739;53.324;6.862;2024-02-23T04:06:45;5.50;99.90
52867;DHT22;38739;53.324;6.862;2024-02-23T04:09:11;5.40;99.90
52867;DHT22;38739;53.324;6.862;2024-02-23T04:11:36;5.40;99.90
52867;DHT22;38739;53.324;6.862;2024-02-23T04:14:02;5.40;99.90
52867;DHT22;38739;53.324;6.862;2024-02-23T04:16:30;5.40;99.90
52867;DHT22;38739;53.324;6.862;2024-02-23T04:18:57;5.40;99.90
52867;DHT22;38739;53.324;6.862;2024-02-23T04:21:23;5.30;99.90
52867;DHT22;38739;53.324;6.862;2024-02-23T04:23:48;5.30;99.90
52867;DHT22;38739;53.324;6.862;2024-02-23T04:26:14;5.30;99.90
52867;DHT22;38739;53.324;6.862;2024-02-23T04:28:41;5.20;99.90
52867;DHT22;38739;53.324;6.862;2024-02-23T04:31:08;5.20;99.90
52867;DHT22;38739;53.324;6.862;2024-02-23T04:33:38;5.20;99.90
52867;DHT22;38739;53.324;6.862;2024-02-23T04:36:04;5.20;99.90
52867;DHT22;38739;53.324;6.862;2024-02-23T04:38:31;5.10;99.90
52867;DHT22;38739;53.324;6.862;2024-02-23T04:40:57;5.10;99.90
52867;DHT22;38739;53.324;6.862;2024-02-23T04:43:24;5.10;99.90
52867;DHT22;38739;53.324;6.862;2024-02-23T04:45:51;5.10;99.90
52867;DHT22;38739;53.324;6.862;2024-02-23T04:48:16;5.10;99.90
52867;DHT22;38739;53.324;6.862;2024-02-23T04:50:42;5.00;99.90
52867;DHT22;38739;53.324;6.862;2024-02-23T04:53:08;5.00;99.90
52867;DHT22;38739;53.324;6.862;2024-02-23T04:55:33;5.00;99.90
52867;DHT22;38739;53.324;6.862;2024-02-23T04:57:59;5.00;99.90
52867;DHT22;38739;53.324;6.862;2024-02-23T05:00:25;5.00;99.90
52867;DHT22;38739;53.324;6.862;2024-02-23T05:02:58;5.00;99.90
52867;DHT22;38739;53.324;6.862;2024-02-23T05:05:24;4.90;99.90
52867;DHT22;38739;53.324;6.862;2024-02-23T05:07:49;4.90;99.90
52867;DHT22;38739;53.324;6.862;2024-02-23T05:10:15;4.90;99.90
52867;DHT22;38739;53.324;6.862;2024-02-23T05:12:42;4.90;99.90
52867;DHT22;38739;53.324;6.862;2024-02-23T05:15:08;4.90;99.90
52867;DHT22;38739;53.324;6.862;2024-02-23T05:17:34;4.90;99.90
52867;DHT22;38739;53.324;6.862;2024-02-23T05:20:00;4.90;99.90
52867;DHT22;38739;53.324;6.862;2024-02-23T05:22:25;4.80;99.90
52867;DHT22;38739;53.324;6.862;2024-02-23T05:24:51;4.80;99.90
52867;DHT22;38739;53.324;6.862;2024-02-23T05:27:17;4.80;99.90
52867;DHT22;38739;53.324;6.862;2024-02-23T05:29:43;4.80;99.90
52867;DHT22;38739;53.324;6.862;2024-02-23T05:32:08;4.80;99.90
52867;DHT22;38739;53.324;6.862;2024-02-23T05:34:34;4.80;99.90
52867;DHT22;38739;53.324;6.862;2024-02-23T05:37:00;4.70;99.90
52867;DHT22;38739;53.324;6.862;2024-02-23T05:39:27;4.70;99.90
52867;DHT22;38739;53.324;6.862;2024-02-23T05:41:53;4.60;99.90
52867;DHT22;38739;53.324;6.862;2024-02-23T05:44:18;4.60;99.90
52867;DHT22;38739;53.324;6.862;2024-02-23T05:46:44;4.60;99.90
52867;DHT22;38739;53.324;6.862;2024-02-23T05:49:10;4.60;99.90
52867;DHT22;38739;53.324;6.862;2024-02-23T05:51:36;4.60;99.90
52867;DHT22;38739;53.324;6.862;2024-02-23T05:54:02;4.60;99.90
52867;DHT22;38739;53.324;6.862;2024-02-23T05:56:28;4.60;99.90
52867;DHT22;38739;53.324;6.862;2024-02-23T05:58:53;4.60;99.90
52867;DHT22;38739;53.324;6.862;2024-02-23T06:01:19;4.60;99.90
52867;DHT22;38739;53.324;6.862;2024-02-23T06:03:46;4.60;99.90
52867;DHT22;38739;53.324;6.862;2024-02-23T06:06:12;4.60;99.90
52867;DHT22;38739;53.324;6.862;2024-02-23T06:08:38;4.60;99.90
52867;DHT22;38739;53.324;6.862;2024-02-23T06:11:04;4.60;99.90
52867;DHT22;38739;53.324;6.862;2024-02-23T06:13:33;4.50;99.90
52867;DHT22;38739;53.324;6.862;2024-02-23T06:15:59;4.60;99.90
52867;DHT22;38739;53.324;6.862;2024-02-23T06:18:25;4.60;99.90
52867;DHT22;38739;53.324;6.862;2024-02-23T06:20:51;4.60;99.90
52867;DHT22;38739;53.324;6.862;2024-02-23T06:23:17;4.60;99.90
52867;DHT22;38739;53.324;6.862;2024-02-23T06:25:43;4.60;99.90
52867;DHT22;38739;53.324;6.862;2024-02-23T06:28:09;4.60;99.90
52867;DHT22;38739;53.324;6.862;2024-02-23T06:30:36;4.60;99.90
52867;DHT22;38739;53.324;6.862;2024-02-23T06:33:02;4.70;99.90
52867;DHT22;38739;53.324;6.862;2024-02-23T06:35:27;4.60;99.90
52867;DHT22;38739;53.324;6.862;2024-02-23T06:37:53;4.60;99.90
52867;DHT22;38739;53.324;6.862;2024-02-23T06:40:18;4.60;99.90
52867;DHT22;38739;53.324;6.862;2024-02-23T06:42:44;4.60;99.90
52867;DHT22;38739;53.324;6.862;2024-02-23T06:45:10;4.70;99.90
52867;DHT22;38739;53.324;6.862;2024-02-23T06:47:36;4.70;99.90
52867;DHT22;38739;53.324;6.862;2024-02-23T06:50:02;4.70;99.90
52867;DHT22;38739;53.324;6.862;2024-02-23T06:52:29;4.80;99.90
52867;DHT22;38739;53.324;6.862;2024-02-23T06:54:55;4.70;99.90
52867;DHT22;38739;53.324;6.862;2024-02-23T06:57:22;4.80;99.90
52867;DHT22;38739;53.324;6.862;2024-02-23T06:59:51;4.80;99.90
52867;DHT22;38739;53.324;6.862;2024-02-23T07:02:17;4.80;99.90
52867;DHT22;38739;53.324;6.862;2024-02-23T07:04:42;4.80;99.90
52867;DHT22;38739;53.324;6.862;2024-02-23T07:07:08;4.80;99.90
52867;DHT22;38739;53.324;6.862;2024-02-23T07:09:34;4.80;99.90
52867;DHT22;38739;53.324;6.862;2024-02-23T07:12:00;4.80;99.90
52867;DHT22;38739;53.324;6.862;2024-02-23T07:14:26;4.80;99.90
52867;DHT22;38739;53.324;6.862;2024-02-23T07:16:52;4.80;99.90
52867;DHT22;38739;53.324;6.862;2024-02-23T07:19:18;4.80;99.90
52867;DHT22;38739;53.324;6.862;2024-02-23T07:21:45;4.80;99.90
52867;DHT22;38739;53.324;6.862;2024-02-23T07:24:11;4.90;99.90
52867;DHT22;38739;53.324;6.862;2024-02-23T07:26:37;4.90;99.90
52867;DHT22;38739;53.324;6.862;2024-02-23T07:29:03;4.90;99.90
52867;DHT22;38739;53.324;6.862;2024-02-23T07:31:29;4.90;99.90
52867;DHT22;38739;53.324;6.862;2024-02-23T07:33:55;4.90;99.90
52867;DHT22;38739;53.324;6.862;2024-02-23T07:36:20;5.00;99.90
52867;DHT22;38739;53.324;6.862;2024-02-23T07:38:47;5.00;99.90
52867;DHT22;38739;53.324;6.862;2024-02-23T07:41:12;5.00;99.90
52867;DHT22;38739;53.324;6.862;2024-02-23T07:43:39;5.10;99.90
52867;DHT22;38739;53.324;6.862;2024-02-23T07:46:05;5.10;99.90
52867;DHT22;38739;53.324;6.862;2024-02-23T07:48:34;5.10;99.90
52867;DHT22;38739;53.324;6.862;2024-02-23T07:51:00;5.10;99.90
52867;DHT22;38739;53.324;6.862;2024-02-23T07:53:26;5.20;99.90
52867;DHT22;38739;53.324;6.862;2024-02-23T07:55:52;5.20;99.90
52867;DHT22;38739;53.324;6.862;2024-02-23T07:58:18;5.20;99.90
52867;DHT22;38739;53.324;6.862;2024-02-23T08:00:44;5.30;99.90
52867;DHT22;38739;53.324;6.862;2024-02-23T08:03:10;5.30;99.90
52867;DHT22;38739;53.324;6.862;2024-02-23T08:05:36;5.30;99.90
52867;DHT22;38739;53.324;6.862;2024-02-23T08:08:02;5.30;99.90
52867;DHT22;38739;53.324;6.862;2024-02-23T08:10:28;5.40;99.90
52867;DHT22;38739;53.324;6.862;2024-02-23T08:12:53;5.40;99.90
52867;DHT22;38739;53.324;6.862;2024-02-23T08:15:19;5.50;99.90
52867;DHT22;38739;53.324;6.862;2024-02-23T08:17:45;5.50;99.90
52867;DHT22;38739;53.324;6.862;2024-02-23T08:20:10;5.50;99.90
52867;DHT22;38739;53.324;6.862;2024-02-23T08:22:36;5.60;99.90
52867;DHT22;38739;53.324;6.862;2024-02-23T08:25:02;5.60;99.90
52867;DHT22;38739;53.324;6.862;2024-02-23T08:27:28;5.60;99.90
52867;DHT22;38739;53.324;6.862;2024-02-23T08:29:54;5.60;99.90
52867;DHT22;38739;53.324;6.862;2024-02-23T08:32:19;5.60;99.90
52867;DHT22;38739;53.324;6.862;2024-02-23T08:34:45;5.60;99.90
52867;DHT22;38739;53.324;6.862;2024-02-23T08:37:12;5.60;99.90
52867;DHT22;38739;53.324;6.862;2024-02-23T08:39:38;5.60;99.90
52867;DHT22;38739;53.324;6.862;2024-02-23T08:42:04;5.60;99.90
52867;DHT22;38739;53.324;6.862;2024-02-23T08:44:29;5.60;99.90
52867;DHT22;38739;53.324;6.862;2024-02-23T08:46:55;5.70;99.90
52867;DHT22;38739;53.324;6.862;2024-02-23T08:49:21;5.70;99.90
52867;DHT22;38739;53.324;6.862;2024-02-23T08:51:46;5.70;99.90
52867;DHT22;38739;53.324;6.862;2024-02-23T08:54:12;5.70;99.90
52867;DHT22;38739;53.324;6.862;2024-02-23T08:56:38;5.70;99.90
52867;DHT22;38739;53.324;6.862;2024-02-23T08:59:05;5.70;99.90
52867;DHT22;38739;53.324;6.862;2024-02-23T09:01:30;5.70;99.90
52867;DHT22;38739;53.324;6.862;2024-02-23T09:03:56;5.70;99.90
52867;DHT22;38739;53.324;6.862;2024-02-23T09:06:22;5.70;99.90
52867;DHT22;38739;53.324;6.862;2024-02-23T09:08:48;5.80;99.90
52867;DHT22;38739;53.324;6.862;2024-02-23T09:11:13;5.80;99.90
52867;DHT22;38739;53.324;6.862;2024-02-23T09:13:41;5.80;99.90
52867;DHT22;38739;53.324;6.862;2024-02-23T09:16:07;5.80;99.90
52867;DHT22;38739;53.324;6.862;2024-02-23T09:18:34;5.80;99.90
52867;DHT22;38739;53.324;6.862;2024-02-23T09:21:00;5.90;99.90
52867;DHT22;38739;53.324;6.862;2024-02-23T09:23:26;5.90;99.90
52867;DHT22;38739;53.324;6.862;2024-02-23T09:25:52;6.00;99.90
52867;DHT22;38739;53.324;6.862;2024-02-23T09:28:18;5.90;99.90
52867;DHT22;38739;53.324;6.862;2024-02-23T09:30:43;6.00;99.90
52867;DHT22;38739;53.324;6.862;2024-02-23T09:33:09;5.90;99.90
52867;DHT22;38739;53.324;6.862;2024-02-23T09:35:35;6.00;99.90
52867;DHT22;38739;53.324;6.862;2024-02-23T09:38:01;6.10;99.90
52867;DHT22;38739;53.324;6.862;2024-02-23T09:40:26;6.10;99.90
52867;DHT22;38739;53.324;6.862;2024-02-23T09:42:56;6.20;99.90
52867;DHT22;38739;53.324;6.862;2024-02-23T09:45:24;6.20;99.90
52867;DHT22;38739;53.324;6.862;2024-02-23T09:47:50;6.20;99.90
52867;DHT22;38739;53.324;6.862;2024-02-23T09:50:17;6.20;99.90
52867;DHT22;38739;53.324;6.862;2024-02-23T09:52:46;6.30;99.90
52867;DHT22;38739;53.324;6.862;2024-02-23T09:55:12;6.30;99.90
52867;DHT22;38739;53.324;6.862;2024-02-23T09:57:39;6.40;99.90
52867;DHT22;38739;53.324;6.862;2024-02-23T10:00:05;6.40;99.90
52867;DHT22;38739;53.324;6.862;2024-02-23T10:02:32;6.50;99.90
52867;DHT22;38739;53.324;6.862;2024-02-23T10:04:59;6.50;99.90
52867;DHT22;38739;53.324;6.862;2024-02-23T10:07:26;6.50;99.90
52867;DHT22;38739;53.324;6.862;2024-02-23T10:09:53;6.60;99.90
52867;DHT22;38739;53.324;6.862;2024-02-23T10:12:20;6.60;99.90
52867;DHT22;38739;53.324;6.862;2024-02-23T10:14:46;6.60;99.90
52867;DHT22;38739;53.324;6.862;2024-02-23T10:17:12;6.70;99.90
52867;DHT22;38739;53.324;6.862;2024-02-23T10:19:38;6.70;99.90
52867;DHT22;38739;53.324;6.862;2024-02-23T10:22:04;6.80;99.90
52867;DHT22;38739;53.324;6.862;2024-02-23T10:24:30;6.80;99.90
52867;DHT22;38739;53.324;6.862;2024-02-23T10:26:56;6.90;99.90
52867;DHT22;38739;53.324;6.862;2024-02-23T10:29:23;7.00;99.90
52867;DHT22;38739;53.324;6.862;2024-02-23T10:31:51;7.10;99.90
52867;DHT22;38739;53.324;6.862;2024-02-23T10:34:19;7.10;99.90
52867;DHT22;38739;53.324;6.862;2024-02-23T10:36:45;7.20;99.90
52867;DHT22;38739;53.324;6.862;2024-02-23T10:39:16;7.30;99.90
52867;DHT22;38739;53.324;6.862;2024-02-23T10:41:47;7.40;99.90
52867;DHT22;38739;53.324;6.862;2024-02-23T10:44:17;7.40;99.90
52867;DHT22;38739;53.324;6.862;2024-02-23T10:46:44;7.30;99.90
52867;DHT22;38739;53.324;6.862;2024-02-23T10:49:11;7.40;99.90
52867;DHT22;38739;53.324;6.862;2024-02-23T10:51:39;7.40;99.90
52867;DHT22;38739;53.324;6.862;2024-02-23T10:54:06;7.40;99.90
52867;DHT22;38739;53.324;6.862;2024-02-23T10:56:32;7.30;99.90
52867;DHT22;38739;53.324;6.862;2024-02-23T10:58:58;7.30;99.90
52867;DHT22;38739;53.324;6.862;2024-02-23T11:01:24;7.20;99.90
52867;DHT22;38739;53.324;6.862;2024-02-23T11:03:51;7.20;99.90
52867;DHT22;38739;53.324;6.862;2024-02-23T11:06:19;7.20;99.90
52867;DHT22;38739;53.324;6.862;2024-02-23T11:08:49;7.20;99.90
52867;DHT22;38739;53.324;6.862;2024-02-23T11:11:16;7.20;99.90
52867;DHT22;38739;53.324;6.862;2024-02-23T11:13:45;7.20;99.90
52867;DHT22;38739;53.324;6.862;2024-02-23T11:16:23;7.20;99.90
52867;DHT22;38739;53.324;6.862;2024-02-23T11:19:04;7.20;99.90
52867;DHT22;38739;53.324;6.862;2024-02-23T11:21:38;7.20;99.90
52867;DHT22;38739;53.324;6.862;2024-02-23T11:24:04;7.20;99.90
52867;DHT22;38739;53.324;6.862;2024-02-23T11:26:30;7.20;99.90
52867;DHT22;38739;53.324;6.862;2024-02-23T11:28:59;7.10;99.90
52867;DHT22;38739;53.324;6.862;2024-02-23T11:31:29;7.10;99.90
52867;DHT22;38739;53.324;6.862;2024-02-23T11:33:56;7.00;99.90
52867;DHT22;38739;53.324;6.862;2024-02-23T11:36:42;7.00;99.90
52867;DHT22;38739;53.324;6.862;2024-02-23T11:39:10;6.90;99.90
52867;DHT22;38739;53.324;6.862;2024-02-23T11:41:39;6.90;99.90
52867;DHT22;38739;53.324;6.862;2024-02-23T11:44:04;6.90;99.90
52867;DHT22;38739;53.324;6.862;2024-02-23T11:46:32;6.90;99.90
52867;DHT22;38739;53.324;6.862;2024-02-23T11:48:58;6.80;99.90
52867;DHT22;38739;53.324;6.862;2024-02-23T11:51:26;6.80;99.90
52867;DHT22;38739;53.324;6.862;2024-02-23T11:53:55;6.70;99.90
52867;DHT22;38739;53.324;6.862;2024-02-23T11:56:23;6.70;99.90
52867;DHT22;38739;53.324;6.862;2024-02-23T11:58:49;6.60;99.90
52867;DHT22;38739;53.324;6.862;2024-02-23T12:01:15;6.60;99.90
52867;DHT22;38739;53.324;6.862;2024-02-23T12:03:41;6.60;99.90
52867;DHT22;38739;53.324;6.862;2024-02-23T12:06:09;6.60;99.90
52867;DHT22;38739;53.324;6.862;2024-02-23T12:08:35;6.60;99.90
52867;DHT22;38739;53.324;6.862;2024-02-23T12:11:05;6.60;99.90
52867;DHT22;38739;53.324;6.862;2024-02-23T12:13:34;6.60;99.90
52867;DHT22;38739;53.324;6.862;2024-02-23T12:16:00;6.60;99.90
52867;DHT22;38739;53.324;6.862;2024-02-23T12:18:26;6.60;99.90
52867;DHT22;38739;53.324;6.862;2024-02-23T12:20:52;6.60;99.90
52867;DHT22;38739;53.324;6.862;2024-02-23T12:23:18;6.50;99.90
52867;DHT22;38739;53.324;6.862;2024-02-23T12:25:54;6.60;99.90
52867;DHT22;38739;53.324;6.862;2024-02-23T12:28:22;6.60;99.90
52867;DHT22;38739;53.324;6.862;2024-02-23T12:31:01;6.50;99.90
52867;DHT22;38739;53.324;6.862;2024-02-23T12:33:33;6.60;99.90
52867;DHT22;38739;53.324;6.862;2024-02-23T12:36:00;6.60;99.90
52867;DHT22;38739;53.324;6.862;2024-02-23T12:38:26;6.60;99.90
52867;DHT22;38739;53.324;6.862;2024-02-23T12:40:52;6.60;99.90
52867;DHT22;38739;53.324;6.862;2024-02-23T12:43:18;6.70;99.90
52867;DHT22;38739;53.324;6.862;2024-02-23T12:45:47;6.70;99.90
52867;DHT22;38739;53.324;6.862;2024-02-23T12:48:17;6.70;99.90
52867;DHT22;38739;53.324;6.862;2024-02-23T12:50:43;6.70;99.90
52867;DHT22;38739;53.324;6.862;2024-02-23T12:55:56;6.80;99.90
52867;DHT22;38739;53.324;6.862;2024-02-23T12:58:22;6.80;99.90
52867;DHT22;38739;53.324;6.862;2024-02-23T13:00:47;6.80;99.90
52867;DHT22;38739;53.324;6.862;2024-02-23T13:03:13;6.80;99.90
52867;DHT22;38739;53.324;6.862;2024-02-23T13:05:39;6.90;99.90
52867;DHT22;38739;53.324;6.862;2024-02-23T13:08:05;6.90;99.90
52867;DHT22;38739;53.324;6.862;2024-02-23T13:10:31;7.00;99.90
52867;DHT22;38739;53.324;6.862;2024-02-23T13:12:57;7.00;99.90
52867;DHT22;38739;53.324;6.862;2024-02-23T13:15:22;7.00;99.90
52867;DHT22;38739;53.324;6.862;2024-02-23T13:17:48;7.00;99.90
52867;DHT22;38739;53.324;6.862;2024-02-23T13:20:14;7.00;99.90
52867;DHT22;38739;53.324;6.862;2024-02-23T13:22:39;7.00;99.90
52867;DHT22;38739;53.324;6.862;2024-02-23T13:25:05;7.10;99.90
52867;DHT22;38739;53.324;6.862;2024-02-23T13:27:31;7.10;99.90
52867;DHT22;38739;53.324;6.862;2024-02-23T13:29:57;7.20;99.90
52867;DHT22;38739;53.324;6.862;2024-02-23T13:32:23;7.30;99.90
52867;DHT22;38739;53.324;6.862;2024-02-23T13:34:49;7.40;99.90
52867;DHT22;38739;53.324;6.862;2024-02-23T13:37:18;7.40;99.90
52867;DHT22;38739;53.324;6.862;2024-02-23T13:39:43;7.40;99.90
52867;DHT22;38739;53.324;6.862;2024-02-23T13:42:09;7.40;99.90
52867;DHT22;38739;53.324;6.862;2024-02-23T13:44:36;7.40;99.90
52867;DHT22;38739;53.324;6.862;2024-02-23T13:47:02;7.40;99.90
52867;DHT22;38739;53.324;6.862;2024-02-23T13:49:28;7.40;99.90
52867;DHT22;38739;53.324;6.862;2024-02-23T13:51:54;7.50;99.90
52867;DHT22;38739;53.324;6.862;2024-02-23T13:54:20;7.60;99.90
52867;DHT22;38739;53.324;6.862;2024-02-23T13:56:45;7.60;99.90
52867;DHT22;38739;53.324;6.862;2024-02-23T13:59:11;7.60;99.90
52867;DHT22;38739;53.324;6.862;2024-02-23T14:01:37;7.60;99.90
52867;DHT22;38739;53.324;6.862;2024-02-23T14:04:06;7.50;99.90
52867;DHT22;38739;53.324;6.862;2024-02-23T14:06:33;7.40;99.90
52867;DHT22;38739;53.324;6.862;2024-02-23T14:08:59;7.50;99.90
52867;DHT22;38739;53.324;6.862;2024-02-23T14:11:25;7.50;99.90
52867;DHT22;38739;53.324;6.862;2024-02-23T14:13:51;7.40;99.90
52867;DHT22;38739;53.324;6.862;2024-02-23T14:16:17;7.50;99.90
52867;DHT22;38739;53.324;6.862;2024-02-23T14:18:42;7.50;99.90
52867;DHT22;38739;53.324;6.862;2024-02-23T14:21:10;7.50;99.90
52867;DHT22;38739;53.324;6.862;2024-02-23T14:23:36;7.60;99.90
52867;DHT22;38739;53.324;6.862;2024-02-23T14:26:05;7.60;99.90
52867;DHT22;38739;53.324;6.862;2024-02-23T14:28:31;7.60;99.90
52867;DHT22;38739;53.324;6.862;2024-02-23T14:30:57;7.50;99.90
52867;DHT22;38739;53.324;6.862;2024-02-23T14:33:22;7.60;99.90
52867;DHT22;38739;53.324;6.862;2024-02-23T14:35:48;7.60;99.90
52867;DHT22;38739;53.324;6.862;2024-02-23T14:38:15;7.70;99.90
52867;DHT22;38739;53.324;6.862;2024-02-23T14:40:42;7.70;99.90
52867;DHT22;38739;53.324;6.862;2024-02-23T14:43:07;7.80;99.90
52867;DHT22;38739;53.324;6.862;2024-02-23T14:45:33;7.70;99.90
52867;DHT22;38739;53.324;6.862;2024-02-23T14:47:59;7.70;99.90
52867;DHT22;38739;53.324;6.862;2024-02-23T14:50:25;7.70;99.90
52867;DHT22;38739;53.324;6.862;2024-02-23T14:52:51;7.70;99.90
52867;DHT22;38739;53.324;6.862;2024-02-23T14:55:16;7.70;99.90
52867;DHT22;38739;53.324;6.862;2024-02-23T14:57:42;7.70;99.90
52867;DHT22;38739;53.324;6.862;2024-02-23T15:00:09;7.80;99.90
52867;DHT22;38739;53.324;6.862;2024-02-23T15:02:35;7.80;99.90
52867;DHT22;38739;53.324;6.862;2024-02-23T15:05:01;7.70;99.90
52867;DHT22;38739;53.324;6.862;2024-02-23T15:07:27;7.70;99.90
52867;DHT22;38739;53.324;6.862;2024-02-23T15:09:53;7.60;99.90
52867;DHT22;38739;53.324;6.862;2024-02-23T15:12:19;7.50;99.90
52867;DHT22;38739;53.324;6.862;2024-02-23T15:14:47;7.40;99.90
52867;DHT22;38739;53.324;6.862;2024-02-23T15:17:13;7.40;99.90
52867;DHT22;38739;53.324;6.862;2024-02-23T15:19:38;7.30;99.90
52867;DHT22;38739;53.324;6.862;2024-02-23T15:22:04;7.30;99.90
52867;DHT22;38739;53.324;6.862;2024-02-23T15:24:33;7.20;99.90
52867;DHT22;38739;53.324;6.862;2024-02-23T15:26:58;7.20;99.90
52867;DHT22;38739;53.324;6.862;2024-02-23T15:29:24;7.10;99.90
52867;DHT22;38739;53.324;6.862;2024-02-23T15:31:50;7.00;99.90
52867;DHT22;38739;53.324;6.862;2024-02-23T15:34:17;6.70;99.90
52867;DHT22;38739;53.324;6.862;2024-02-23T15:36:42;6.60;99.90
52867;DHT22;38739;53.324;6.862;2024-02-23T15:39:08;6.60;99.90
52867;DHT22;38739;53.324;6.862;2024-02-23T15:41:34;6.50;99.90